Time;durP1;ratioP1;P1;durP2;ratioP2;P2;SDS_P1;SDS_P2;PMS_P1;PMS_P2;Temp;Humidity;BMP_temperature;BMP_pressure;BME280_temperature;BME280_humidity;BME280_pressure;Samples;Min_cycle;Max_cycle;Signal;HPM_P1;HPM_P2
2023/03/28 00:01:05;;;;;;;;;;;;;;;0.10;65.29;100740.34;108445;1253;67189;-81
2023/03/28 00:03:38;;;;;;;;;;;;;;;0.06;65.66;100732.36;108935;1253;124326;-80
2023/03/28 00:06:08;;;;;;;;;;;;;;;0.04;65.70;100724.26;108440;1253;60156;-81
2023/03/28 00:08:39;;;;;;;;;;;;;;;0.05;65.78;100720.52;109082;1254;60340;-81
2023/03/28 00:11:10;;;;;;;;;;;;;;;0.02;65.86;100722.41;108862;1254;124207;-80
2023/03/28 00:13:37;;;;;;;;;;;;;;;-0.03;66.08;100724.31;109004;1255;66932;-80
2023/03/28 00:16:06;;;;;;;;;;;;;;;-0.06;66.22;100732.94;109101;1253;124779;-80
2023/03/28 00:18:36;;;;;;;;;;;;;;;-0.04;66.46;100731.52;109073;1253;60233;-80
2023/03/28 00:21:05;;;;;;;;;;;;;;;0.01;66.58;100724.39;109118;1255;60120;-80
2023/03/28 00:23:34;;;;;;;;;;;;;;;0.06;66.57;100722.98;108922;1254;124239;-80
2023/03/28 00:26:06;;;;;;;;;;;;;;;0.05;66.70;100715.36;108962;1254;66875;-79
2023/03/28 00:28:34;;;;;;;;;;;;;;;0.03;66.62;100714.67;108859;1254;125733;-79
2023/03/28 00:31:01;;;;;;;;;;;;;;;-0.01;66.85;100707.89;109139;1254;60195;-79
2023/03/28 00:33:28;;;;;;;;;;;;;;;0.00;66.94;100705.02;108896;1253;126055;-79
2023/03/28 00:35:55;;;;;;;;;;;;;;;0.05;67.14;100704.13;109137;1253;74166;-79
2023/03/28 00:38:22;;;;;;;;;;;;;;;0.07;67.25;100700.15;109062;1253;67541;-80
2023/03/28 00:40:54;;;;;;;;;;;;;;;0.06;67.14;100697.83;108769;1254;125408;-80
2023/03/28 00:43:41;;;;;;;;;;;;;;;0.03;67.24;100700.73;108995;1254;60649;-80
2023/03/28 00:46:19;;;;;;;;;;;;;;;-0.04;67.25;100694.11;108963;1253;124969;-80
2023/03/28 00:48:50;;;;;;;;;;;;;;;-0.09;67.37;100694.10;109081;1253;75852;-80
2023/03/28 00:51:18;;;;;;;;;;;;;;;-0.13;67.29;100687.59;108794;1253;126351;-80
2023/03/28 00:53:45;;;;;;;;;;;;;;;-0.20;67.42;100695.77;108868;1253;72922;-81
2023/03/28 00:56:13;;;;;;;;;;;;;;;-0.28;67.48;100696.09;108839;1255;60276;-80
2023/03/28 00:58:41;;;;;;;;;;;;;;;-0.36;67.68;100700.74;108824;1260;126172;-80
2023/03/28 01:01:09;;;;;;;;;;;;;;;-0.38;67.98;100699.91;108963;1253;74198;-80
2023/03/28 01:03:40;;;;;;;;;;;;;;;-0.38;67.94;100699.06;109045;1254;125785;-81
2023/03/28 01:06:07;;;;;;;;;;;;;;;-0.40;68.12;100700.45;109091;1253;71151;-80
2023/03/28 01:08:35;;;;;;;;;;;;;;;-0.45;68.31;100702.71;109002;1253;59914;-80
2023/03/28 01:11:02;;;;;;;;;;;;;;;-0.45;68.43;100700.25;108793;1253;125538;-80
2023/03/28 01:13:30;;;;;;;;;;;;;;;-0.47;68.48;100700.64;108860;1253;75132;-80
2023/03/28 01:15:58;;;;;;;;;;;;;;;-0.48;68.59;100703.15;108794;1256;124395;-80
2023/03/28 01:18:25;;;;;;;;;;;;;;;-0.42;68.91;100704.45;109008;1253;71914;-80
2023/03/28 01:20:55;;;;;;;;;;;;;;;-0.33;69.11;100704.85;108967;1253;60786;-80
2023/03/28 01:23:31;;;;;;;;;;;;;;;-0.26;69.22;100707.78;108964;1253;125041;-80
2023/03/28 01:26:09;;;;;;;;;;;;;;;-0.17;69.14;100708.88;109060;1253;75474;-80
2023/03/28 01:28:42;;;;;;;;;;;;;;;-0.10;69.29;100714.20;108880;1253;124744;-80
2023/03/28 01:31:19;;;;;;;;;;;;;;;-0.07;69.19;100712.87;109070;1253;73184;-80
2023/03/28 01:34:05;;;;;;;;;;;;;;;-0.03;69.07;100713.30;108744;1260;124880;-80
2023/03/28 01:36:39;;;;;;;;;;;;;;;0.04;69.26;100718.23;108983;1254;60354;-80
2023/03/28 01:39:16;;;;;;;;;;;;;;;0.11;69.23;100714.41;109002;1253;73446;-80
2023/03/28 01:41:46;;;;;;;;;;;;;;;0.15;69.29;100714.52;108937;1253;67122;-80
2023/03/28 01:44:23;;;;;;;;;;;;;;;0.18;69.06;100720.37;109151;1253;72723;-80
2023/03/28 01:46:53;;;;;;;;;;;;;;;0.20;69.13;100725.52;109014;1253;124774;-80
2023/03/28 01:49:29;;;;;;;;;;;;;;;0.19;68.98;100729.05;108944;1254;60687;-80
2023/03/28 01:52:17;;;;;;;;;;;;;;;0.18;68.88;100725.54;108943;1254;124806;-80
2023/03/28 01:55:04;;;;;;;;;;;;;;;0.22;69.21;100726.96;109059;1254;66053;-80
2023/03/28 01:57:36;;;;;;;;;;;;;;;0.28;69.22;100726.00;108926;1253;125033;-80
2023/03/28 02:00:12;;;;;;;;;;;;;;;0.32;69.21;100727.70;109050;1253;60252;-80
2023/03/28 02:02:39;;;;;;;;;;;;;;;0.36;69.27;100729.15;108966;1256;60184;-80
2023/03/28 02:05:07;;;;;;;;;;;;;;;0.38;69.16;100733.59;108991;1253;123985;-80
2023/03/28 02:07:34;;;;;;;;;;;;;;;0.36;69.24;100733.61;109052;1253;67534;-80
2023/03/28 02:10:02;;;;;;;;;;;;;;;0.40;69.43;100730.58;108900;1253;124273;-80
2023/03/28 02:12:30;;;;;;;;;;;;;;;0.45;69.60;100733.02;109113;1253;60039;-79
2023/03/28 02:14:57;;;;;;;;;;;;;;;0.47;69.49;100728.79;108984;1253;60652;-79
2023/03/28 02:17:23;;;;;;;;;;;;;;;0.49;69.56;100734.64;108909;1253;124108;-79
2023/03/28 02:19:52;;;;;;;;;;;;;;;0.54;69.70;100735.82;109079;1253;66127;-79
2023/03/28 02:22:21;;;;;;;;;;;;;;;0.57;69.71;100738.13;108727;1253;124623;-79
2023/03/28 02:24:50;;;;;;;;;;;;;;;0.57;69.46;100737.58;108846;1253;60445;-79
2023/03/28 02:27:21;;;;;;;;;;;;;;;0.58;69.55;100744.52;108814;1253;124381;-79
2023/03/28 02:29:48;;;;;;;;;;;;;;;0.62;69.82;100740.27;108924;1253;75686;-79
2023/03/28 02:32:15;;;;;;;;;;;;;;;0.62;69.51;100744.47;108897;1254;65937;-79
2023/03/28 02:34:42;;;;;;;;;;;;;;;0.62;69.72;100745.16;108741;1253;124114;-79
2023/03/28 02:37:28;;;;;;;;;;;;;;;0.63;69.64;100746.77;108836;1253;60041;-80
2023/03/28 02:40:01;;;;;;;;;;;;;;;0.65;69.67;100750.82;108961;1253;124566;-80
2023/03/28 02:42:34;;;;;;;;;;;;;;;0.65;69.71;100752.23;109114;1254;75399;-80
2023/03/28 02:45:20;;;;;;;;;;;;;;;0.66;69.69;100755.06;109078;1253;66051;-79
2023/03/28 02:47:52;;;;;;;;;;;;;;;0.68;69.70;100753.85;109070;1253;72672;-79
2023/03/28 02:50:24;;;;;;;;;;;;;;;0.69;69.72;100758.19;109027;1253;60174;-79
2023/03/28 02:52:57;;;;;;;;;;;;;;;0.63;69.62;100760.19;108782;1259;123983;-79
2023/03/28 02:55:27;;;;;;;;;;;;;;;0.54;69.76;100763.84;109019;1253;75830;-78
2023/03/28 02:58:20;;;;;;;;;;;;;;;0.40;70.36;100772.20;108816;1253;125513;-79
2023/03/28 03:00:47;;;;;;;;;;;;;;;0.18;70.35;100778.48;108529;1260;71069;-79
2023/03/28 03:03:15;;;;;;;;;;;;;;;0.00;71.08;100779.05;108610;1260;60353;-79
2023/03/28 03:05:42;;;;;;;;;;;;;;;-0.10;71.78;100786.14;108439;1261;60589;-79
2023/03/28 03:08:10;;;;;;;;;;;;;;;-0.21;71.66;100789.70;107664;1260;75525;-79
2023/03/28 03:10:37;;;;;;;;;;;;;;;-0.31;71.96;100795.73;107589;1260;125675;-79
2023/03/28 03:13:04;;;;;;;;;;;;;;;-0.37;72.27;100802.88;107783;1262;72900;-79
2023/03/28 03:15:34;;;;;;;;;;;;;;;-0.46;72.44;100810.91;107631;1260;125953;-79
2023/03/28 03:18:01;;;;;;;;;;;;;;;-0.57;72.93;100806.51;107776;1260;62181;-79
2023/03/28 03:20:32;;;;;;;;;;;;;;;-0.64;73.46;100813.98;107624;1260;75482;-79
2023/03/28 03:22:59;;;;;;;;;;;;;;;-0.69;73.82;100818.63;107411;1260;125375;-79
2023/03/28 03:25:27;;;;;;;;;;;;;;;-0.76;73.82;100818.76;107470;1260;71365;-79
2023/03/28 03:27:54;;;;;;;;;;;;;;;-0.82;73.75;100822.50;107167;1266;125828;-79
2023/03/28 03:30:21;;;;;;;;;;;;;;;-0.84;73.63;100822.67;107499;1260;60559;-79
2023/03/28 03:32:48;;;;;;;;;;;;;;;-0.88;73.65;100821.52;107585;1261;75499;-79
2023/03/28 03:35:15;;;;;;;;;;;;;;;-0.92;73.84;100828.14;107346;1260;126032;-79
2023/03/28 03:37:42;;;;;;;;;;;;;;;-0.93;74.04;100829.79;107380;1254;71328;-79
2023/03/28 03:40:09;;;;;;;;;;;;;;;-0.95;74.03;100839.14;108162;1257;125172;-79
2023/03/28 03:42:36;;;;;;;;;;;;;;;-0.97;73.97;100842.41;108198;1253;60527;-79
2023/03/28 03:45:03;;;;;;;;;;;;;;;-1.00;74.19;100841.73;107968;1260;74183;-80
2023/03/28 03:47:32;;;;;;;;;;;;;;;-1.03;74.05;100848.18;107751;1253;125306;-80
2023/03/28 03:49:59;;;;;;;;;;;;;;;-1.06;74.18;100841.42;107825;1253;73236;-80
2023/03/28 03:52:26;;;;;;;;;;;;;;;-1.06;74.39;100844.91;108001;1253;125543;-80
2023/03/28 03:54:54;;;;;;;;;;;;;;;-1.07;74.41;100843.91;108006;1254;61939;-81
2023/03/28 03:57:21;;;;;;;;;;;;;;;-1.09;74.49;100848.30;108042;1254;125775;-79
2023/03/28 03:59:52;;;;;;;;;;;;;;;-1.11;74.37;100850.56;108199;1254;66730;-80
2023/03/28 04:02:19;;;;;;;;;;;;;;;-1.13;74.51;100856.59;107852;1259;71187;-80
2023/03/28 04:04:46;;;;;;;;;;;;;;;-1.17;74.42;100860.94;107804;1254;125765;-77
2023/03/28 04:07:13;;;;;;;;;;;;;;;-1.21;74.59;100862.08;107798;1256;61724;-78
2023/03/28 04:09:40;;;;;;;;;;;;;;;-1.26;74.59;100860.83;107715;1254;125269;-78
2023/03/28 04:12:07;;;;;;;;;;;;;;;-1.31;74.63;100863.75;107925;1259;65549;-78
2023/03/28 04:14:34;;;;;;;;;;;;;;;-1.38;74.42;100865.66;107807;1254;71406;-79
2023/03/28 04:17:03;;;;;;;;;;;;;;;-1.43;74.57;100870.77;107815;1257;125559;-77
2023/03/28 04:19:50;;;;;;;;;;;;;;;-1.49;74.42;100871.17;107885;1254;61699;-78
2023/03/28 04:22:17;;;;;;;;;;;;;;;-1.55;74.48;100874.52;107521;1253;125203;-80
2023/03/28 04:24:44;;;;;;;;;;;;;;;-1.60;74.55;100874.45;107472;1253;67065;-78
2023/03/28 04:27:11;;;;;;;;;;;;;;;-1.64;74.73;100878.80;108095;1254;72632;-79
2023/03/28 04:29:40;;;;;;;;;;;;;;;-1.68;74.64;100880.23;107696;1256;124831;-81
2023/03/28 04:32:07;;;;;;;;;;;;;;;-1.70;74.73;100888.67;107764;1253;60557;-82
2023/03/28 04:34:36;;;;;;;;;;;;;;;-1.73;74.71;100893.41;107588;1253;125467;-80
2023/03/28 04:37:04;;;;;;;;;;;;;;;-1.76;74.82;100896.13;108062;1253;66931;-80
2023/03/28 04:39:34;;;;;;;;;;;;;;;-1.79;74.73;100898.49;108063;1254;125049;-82
2023/03/28 04:42:02;;;;;;;;;;;;;;;-1.80;74.84;100903.42;107947;1256;61802;-80
2023/03/28 04:44:29;;;;;;;;;;;;;;;-1.81;74.79;100907.96;108119;1254;61592;-81
2023/03/28 04:46:57;;;;;;;;;;;;;;;-1.82;74.70;100910.64;108910;1253;125671;-83
2023/03/28 04:49:24;;;;;;;;;;;;;;;-1.82;74.61;100914.63;109017;1253;67061;-81
2023/03/28 04:51:51;;;;;;;;;;;;;;;-1.82;74.70;100917.57;109016;1254;125337;-81
2023/03/28 04:54:19;;;;;;;;;;;;;;;-1.80;74.64;100918.91;107918;1253;62044;-80
2023/03/28 04:56:49;;;;;;;;;;;;;;;-1.75;74.80;100924.09;108005;1259;61543;-80
2023/03/28 04:59:16;;;;;;;;;;;;;;;-1.74;74.55;100926.41;107934;1253;125472;-80
2023/03/28 05:01:48;;;;;;;;;;;;;;;-1.73;74.44;100931.13;108123;1254;65957;-81
2023/03/28 05:04:18;;;;;;;;;;;;;;;-1.72;74.35;100932.41;107788;1253;124798;-80
2023/03/28 05:06:45;;;;;;;;;;;;;;;-1.71;74.14;100938.48;107864;1253;60549;-80
2023/03/28 05:09:13;;;;;;;;;;;;;;;-1.69;74.02;100935.38;108100;1253;63083;-82
2023/03/28 05:11:40;;;;;;;;;;;;;;;-1.65;74.07;100937.88;107859;1259;125030;-81
2023/03/28 05:14:07;;;;;;;;;;;;;;;-1.60;74.03;100938.67;107505;1253;66773;-79
2023/03/28 05:16:34;;;;;;;;;;;;;;;-1.47;73.93;100942.09;107589;1256;125213;-79
2023/03/28 05:19:01;;;;;;;;;;;;;;;-1.37;73.80;100941.08;107835;1253;60775;-79
2023/03/28 05:21:28;;;;;;;;;;;;;;;-1.24;73.66;100943.41;107620;1257;125293;-79
2023/03/28 05:23:55;;;;;;;;;;;;;;;-1.12;73.58;100944.89;107789;1257;75486;-79
2023/03/28 05:26:22;;;;;;;;;;;;;;;-0.94;73.49;100951.13;107389;1259;67602;-79
2023/03/28 05:28:49;;;;;;;;;;;;;;;-0.79;73.48;100958.84;107458;1253;125380;-79
2023/03/28 05:31:16;;;;;;;;;;;;;;;-0.70;72.96;100962.44;107730;1253;61955;-79
2023/03/28 05:33:43;;;;;;;;;;;;;;;-0.63;72.51;100966.06;107718;1253;125291;-79
2023/03/28 05:36:11;;;;;;;;;;;;;;;-0.45;72.76;100974.03;107591;1254;75954;-79
2023/03/28 05:38:38;;;;;;;;;;;;;;;-0.11;72.85;100973.58;107642;1253;67141;-79
2023/03/28 05:41:05;;;;;;;;;;;;;;;0.20;72.67;100972.83;107453;1253;125430;-80
2023/03/28 05:43:32;;;;;;;;;;;;;;;0.35;71.59;100971.77;107735;1257;61948;-80
2023/03/28 05:45:59;;;;;;;;;;;;;;;0.30;70.85;100974.38;107644;1253;125122;-79
2023/03/28 05:48:26;;;;;;;;;;;;;;;0.23;70.94;100983.34;107669;1253;75631;-80
2023/03/28 05:50:53;;;;;;;;;;;;;;;0.14;70.39;100985.19;107930;1254;65452;-79
2023/03/28 05:53:20;;;;;;;;;;;;;;;0.08;70.17;100988.04;108133;1253;124561;-78
2023/03/28 05:55:47;;;;;;;;;;;;;;;0.09;70.13;100991.15;108108;1253;61058;-79
2023/03/28 05:58:15;;;;;;;;;;;;;;;0.02;70.01;100994.52;108086;1254;125345;-78
2023/03/28 06:01:22;;;;;;;;;;;;;;;-0.09;69.62;100997.16;107949;1253;75467;-90
2023/03/28 06:05:06;;;;;;;;;;;;;;;-0.28;69.53;101001.50;107265;1263;124318;-93
2023/03/28 06:07:33;;;;;;;;;;;;;;;-0.31;69.67;101005.05;106835;1271;72650;-79
2023/03/28 06:10:00;;;;;;;;;;;;;;;-0.36;69.53;101009.86;106917;1269;125694;-78
2023/03/28 06:12:27;;;;;;;;;;;;;;;-0.42;69.32;101013.56;106829;1271;62443;-78
2023/03/28 06:14:55;;;;;;;;;;;;;;;-0.42;69.50;101015.66;106814;1270;74984;-78
2023/03/28 06:17:23;;;;;;;;;;;;;;;-0.37;69.42;101017.59;106610;1270;125059;-80
2023/03/28 06:19:50;;;;;;;;;;;;;;;-0.30;69.27;101025.98;107700;1270;72467;-78
2023/03/28 06:22:17;;;;;;;;;;;;;;;-0.16;69.18;101027.56;107889;1271;124661;-80
2023/03/28 06:24:44;;;;;;;;;;;;;;;0.06;69.21;101025.81;107950;1270;59949;-80
2023/03/28 06:27:11;;;;;;;;;;;;;;;0.16;68.86;101025.88;107864;1271;75316;-77
2023/03/28 06:29:38;;;;;;;;;;;;;;;0.10;67.75;101039.59;107757;1271;124044;-78
2023/03/28 06:32:05;;;;;;;;;;;;;;;-0.08;67.50;101037.74;107964;1270;71523;-78
2023/03/28 06:34:32;;;;;;;;;;;;;;;-0.23;67.52;101039.80;107822;1269;124803;-78
2023/03/28 06:37:00;;;;;;;;;;;;;;;-0.35;67.21;101048.23;107895;1269;60246;-78
2023/03/28 06:39:27;;;;;;;;;;;;;;;-0.47;67.38;101046.79;107845;1270;125296;-79
2023/03/28 06:41:54;;;;;;;;;;;;;;;-0.51;67.40;101055.67;108284;1264;66805;-79
2023/03/28 06:44:21;;;;;;;;;;;;;;;-0.51;67.33;101058.24;108644;1253;71055;-78
2023/03/28 06:46:48;;;;;;;;;;;;;;;-0.41;67.54;101061.27;109018;1254;124917;-80
2023/03/28 06:49:15;;;;;;;;;;;;;;;-0.36;67.58;101060.77;109210;1253;59969;-80
2023/03/28 06:51:42;;;;;;;;;;;;;;;-0.39;67.36;101068.09;109065;1253;125110;-80
2023/03/28 06:54:10;;;;;;;;;;;;;;;-0.45;67.62;101066.64;108993;1253;66784;-80
2023/03/28 06:56:37;;;;;;;;;;;;;;;-0.39;67.86;101070.05;108902;1253;71223;-79
2023/03/28 06:59:04;;;;;;;;;;;;;;;-0.32;67.89;101078.15;108850;1253;124377;-81
2023/03/28 07:01:31;;;;;;;;;;;;;;;-0.25;67.54;101084.67;109223;1254;59762;-81
2023/03/28 07:03:58;;;;;;;;;;;;;;;-0.14;67.43;101092.86;108911;1254;125342;-80
2023/03/28 07:06:25;;;;;;;;;;;;;;;-0.08;67.14;101099.17;109090;1253;65917;-79
2023/03/28 07:08:52;;;;;;;;;;;;;;;-0.15;67.06;101094.84;108911;1259;74222;-79
2023/03/28 07:11:19;;;;;;;;;;;;;;;-0.14;67.17;101096.31;108910;1253;124793;-79
2023/03/28 07:13:46;;;;;;;;;;;;;;;-0.14;67.09;101092.70;108980;1253;60210;-80
2023/03/28 07:16:13;;;;;;;;;;;;;;;-0.09;67.18;101097.20;109016;1253;124166;-80
2023/03/28 07:18:40;;;;;;;;;;;;;;;-0.08;66.83;101100.88;109130;1253;66818;-81
2023/03/28 07:21:08;;;;;;;;;;;;;;;-0.10;66.87;101099.21;108902;1253;71946;-80
2023/03/28 07:23:35;;;;;;;;;;;;;;;0.00;67.39;101107.01;108888;1256;124332;-79
2023/03/28 07:26:06;;;;;;;;;;;;;;;-0.02;68.67;101107.58;108904;1253;60779;-79
2023/03/28 07:28:33;;;;;;;;;;;;;;;-0.02;68.91;101112.73;108805;1253;124641;-79
2023/03/28 07:31:01;;;;;;;;;;;;;;;-0.02;68.27;101116.92;108950;1253;67514;-80
2023/03/28 07:33:28;;;;;;;;;;;;;;;-0.10;67.77;101139.93;108856;1253;124650;-80
2023/03/28 07:35:55;;;;;;;;;;;;;;;-0.25;67.30;101124.99;109143;1253;60074;-79
2023/03/28 07:38:22;;;;;;;;;;;;;;;-0.28;67.36;101130.65;108580;1253;60127;-79
2023/03/28 07:40:49;;;;;;;;;;;;;;;-0.22;67.57;101137.00;107478;1254;124325;-79
2023/03/28 07:43:16;;;;;;;;;;;;;;;-0.10;67.53;101137.33;107749;1253;67033;-79
2023/03/28 07:45:43;;;;;;;;;;;;;;;0.03;67.41;101143.47;107804;1254;125077;-79
2023/03/28 07:48:10;;;;;;;;;;;;;;;0.25;67.19;101149.36;107906;1254;62072;-79
2023/03/28 07:50:37;;;;;;;;;;;;;;;0.46;66.81;101151.54;108069;1253;62854;-79
2023/03/28 07:53:13;;;;;;;;;;;;;;;0.63;66.39;101160.55;108147;1253;124424;-82
2023/03/28 07:55:57;;;;;;;;;;;;;;;0.79;66.04;101156.98;109047;1253;67961;-79
2023/03/28 07:58:24;;;;;;;;;;;;;;;0.86;65.48;101187.39;109017;1253;124602;-78
2023/03/28 08:00:51;;;;;;;;;;;;;;;0.71;64.68;101178.77;108963;1253;59885;-78
2023/03/28 08:03:18;;;;;;;;;;;;;;;0.61;65.04;101186.15;109188;1253;60194;-78
2023/03/28 08:05:50;;;;;;;;;;;;;;;0.63;64.57;101185.95;109070;1254;123965;-79
2023/03/28 08:08:18;;;;;;;;;;;;;;;0.77;64.98;101188.14;109179;1253;67052;-78
2023/03/28 08:10:45;;;;;;;;;;;;;;;1.01;65.15;101184.83;107836;1254;124844;-79
2023/03/28 08:13:14;;;;;;;;;;;;;;;1.31;65.52;101185.83;107738;1253;61955;-78
2023/03/28 08:15:41;;;;;;;;;;;;;;;1.48;64.58;101195.20;107588;1253;124366;-78
2023/03/28 08:18:08;;;;;;;;;;;;;;;1.40;64.14;101196.88;107638;1258;73816;-79
2023/03/28 08:20:35;;;;;;;;;;;;;;;1.37;64.14;101201.67;107652;1253;67543;-78
2023/03/28 08:23:02;;;;;;;;;;;;;;;1.29;63.81;101204.38;107802;1254;124621;-78
2023/03/28 08:25:29;;;;;;;;;;;;;;;1.17;63.72;101207.85;107891;1254;61893;-78
2023/03/28 08:27:56;;;;;;;;;;;;;;;1.06;63.23;101216.77;107552;1258;124724;-79
2023/03/28 08:30:23;;;;;;;;;;;;;;;0.90;63.99;101220.18;107409;1254;75916;-79
2023/03/28 08:32:52;;;;;;;;;;;;;;;0.73;63.71;101217.39;107334;1259;66842;-78
2023/03/28 08:35:19;;;;;;;;;;;;;;;0.60;63.23;101224.20;107336;1258;124239;-80
2023/03/28 08:37:53;;;;;;;;;;;;;;;0.44;63.17;101221.04;107393;1254;62118;-80
2023/03/28 08:40:20;;;;;;;;;;;;;;;0.46;63.58;101223.39;107491;1254;124347;-80
2023/03/28 08:42:47;;;;;;;;;;;;;;;0.61;64.00;101224.16;107805;1253;75504;-80
2023/03/28 08:45:14;;;;;;;;;;;;;;;0.89;65.12;101229.75;107935;1259;66995;-80
2023/03/28 08:47:58;;;;;;;;;;;;;;;1.24;65.51;101237.09;107572;1257;124791;-80
2023/03/28 08:50:35;;;;;;;;;;;;;;;1.45;65.69;101241.96;107719;1258;60491;-80
2023/03/28 08:53:03;;;;;;;;;;;;;;;1.44;65.27;101246.08;107756;1253;124663;-80
2023/03/28 08:55:30;;;;;;;;;;;;;;;1.34;65.24;101245.59;107916;1257;76136;-79
2023/03/28 08:57:58;;;;;;;;;;;;;;;1.27;64.91;101253.39;107792;1253;125607;-80
2023/03/28 09:00:29;;;;;;;;;;;;;;;1.21;64.85;101257.94;107733;1253;73210;-80
2023/03/28 09:02:57;;;;;;;;;;;;;;;1.23;64.81;101260.71;107736;1253;60114;-80
2023/03/28 09:05:27;;;;;;;;;;;;;;;1.26;64.32;101271.77;107787;1254;124752;-80
2023/03/28 09:08:12;;;;;;;;;;;;;;;1.13;63.40;101269.84;107825;1254;75514;-80
2023/03/28 09:10:47;;;;;;;;;;;;;;;1.05;63.37;101265.67;108670;1253;124612;-80
2023/03/28 09:13:36;;;;;;;;;;;;;;;1.02;62.87;101267.13;109030;1254;73336;-80
2023/03/28 09:16:05;;;;;;;;;;;;;;;1.02;63.09;101266.83;107814;1253;124647;-80
2023/03/28 09:18:50;;;;;;;;;;;;;;;1.10;63.13;101272.54;107898;1253;62115;-80
2023/03/28 09:21:21;;;;;;;;;;;;;;;1.21;63.52;101271.63;107957;1253;74220;-80
2023/03/28 09:23:57;;;;;;;;;;;;;;;1.29;63.17;101273.61;107910;1253;124155;-80
2023/03/28 09:26:26;;;;;;;;;;;;;;;1.28;62.42;101278.33;108063;1253;73198;-79
2023/03/28 09:28:57;;;;;;;;;;;;;;;1.35;62.77;101276.09;108016;1253;124959;-79
2023/03/28 09:31:39;;;;;;;;;;;;;;;1.65;62.97;101276.96;108104;1258;60738;-79
2023/03/28 09:34:06;;;;;;;;;;;;;;;1.83;62.23;101283.33;107584;1254;124518;-80
2023/03/28 09:36:36;;;;;;;;;;;;;;;1.89;61.37;101286.34;107782;1254;66977;-79
2023/03/28 09:39:04;;;;;;;;;;;;;;;1.91;61.47;101276.98;108105;1256;239111;-79
2023/03/28 09:41:35;;;;;;;;;;;;;;;2.09;61.89;101278.04;107978;1254;124912;-79
2023/03/28 09:44:02;;;;;;;;;;;;;;;2.29;62.18;101273.48;107793;1254;60792;-80
2023/03/28 09:46:31;;;;;;;;;;;;;;;2.61;62.21;101275.73;107763;1256;124071;-79
2023/03/28 09:48:58;;;;;;;;;;;;;;;2.78;61.78;101286.52;107757;1254;68025;-79
2023/03/28 09:51:27;;;;;;;;;;;;;;;2.74;61.24;101287.86;107565;1254;124388;-80
2023/03/28 09:53:54;;;;;;;;;;;;;;;2.62;60.77;101283.90;107825;1254;60566;-77
2023/03/28 09:56:29;;;;;;;;;;;;;;;2.56;60.90;101289.59;107949;1254;61767;-77
2023/03/28 09:58:57;;;;;;;;;;;;;;;2.38;60.44;101296.94;107518;1255;124372;-77
2023/03/28 10:01:32;;;;;;;;;;;;;;;2.20;60.42;101303.52;107475;1257;65679;-78
2023/03/28 10:03:59;;;;;;;;;;;;;;;2.01;60.25;101312.59;108753;1257;124297;-80
2023/03/28 10:06:30;;;;;;;;;;;;;;;1.85;60.39;101315.31;108919;1256;60068;-80
2023/03/28 10:09:08;;;;;;;;;;;;;;;1.68;59.98;101318.00;108988;1259;60176;-79
2023/03/28 10:11:53;;;;;;;;;;;;;;;1.62;60.24;101320.29;108946;1256;123980;-81
2023/03/28 10:14:32;;;;;;;;;;;;;;;1.60;60.23;101328.46;108952;1256;66924;-80
2023/03/28 10:17:00;;;;;;;;;;;;;;;1.58;60.42;101335.05;108848;1256;124176;-80
2023/03/28 10:19:30;;;;;;;;;;;;;;;1.57;60.27;101342.14;108131;1256;60533;-80
2023/03/28 10:21:59;;;;;;;;;;;;;;;1.61;59.94;101340.84;107413;1261;124739;-80
2023/03/28 10:24:27;;;;;;;;;;;;;;;1.74;60.06;101343.96;107723;1256;75626;-80
2023/03/28 10:26:57;;;;;;;;;;;;;;;1.98;59.59;101334.22;107781;1260;65799;-80
2023/03/28 10:29:25;;;;;;;;;;;;;;;2.15;58.75;101364.80;107749;1255;124881;-80
2023/03/28 10:31:53;;;;;;;;;;;;;;;2.10;64.18;101376.45;107887;1255;61982;-80
2023/03/28 10:34:25;;;;;;;;;;;;;;;1.91;66.49;101366.45;107634;1261;124772;-81
2023/03/28 10:36:54;;;;;;;;;;;;;;;1.83;63.23;101368.33;107610;1256;73384;-81
2023/03/28 10:39:25;;;;;;;;;;;;;;;1.75;61.12;101368.33;107804;1256;67547;-80
2023/03/28 10:41:52;;;;;;;;;;;;;;;1.85;60.86;101379.39;107806;1257;72501;-80
2023/03/28 10:44:26;;;;;;;;;;;;;;;1.95;61.74;101389.21;107496;1255;62534;-80
2023/03/28 10:46:53;;;;;;;;;;;;;;;1.80;63.85;101399.09;107494;1257;124859;-81
2023/03/28 10:49:20;;;;;;;;;;;;;;;1.47;63.94;101396.02;107516;1257;74082;-80
2023/03/28 10:51:47;;;;;;;;;;;;;;;1.08;63.83;101395.70;108874;1256;124944;-80
2023/03/28 10:54:17;;;;;;;;;;;;;;;0.73;63.43;101397.73;109021;1256;71400;-80
2023/03/28 10:56:51;;;;;;;;;;;;;;;0.49;63.72;101401.81;108859;1256;60053;-80
2023/03/28 10:59:21;;;;;;;;;;;;;;;0.45;64.37;101400.65;108777;1257;124264;-80
2023/03/28 11:02:00;;;;;;;;;;;;;;;0.52;64.39;101396.88;109044;1255;74282;-80
2023/03/28 11:04:33;;;;;;;;;;;;;;;0.55;63.85;101404.71;108977;1257;124237;-80
2023/03/28 11:07:19;;;;;;;;;;;;;;;0.65;63.70;101405.41;108333;1257;72740;-81
2023/03/28 11:10:01;;;;;;;;;;;;;;;0.94;63.81;101397.95;107616;1257;124651;-80
2023/03/28 11:12:37;;;;;;;;;;;;;;;1.13;63.31;101404.52;107506;1256;60781;-80
2023/03/28 11:15:13;;;;;;;;;;;;;;;1.23;62.12;101409.86;108827;1256;75533;-80
2023/03/28 11:17:46;;;;;;;;;;;;;;;1.14;61.13;101413.38;108883;1257;124508;-80
2023/03/28 11:20:32;;;;;;;;;;;;;;;1.01;60.59;101420.23;109010;1259;71101;-79
2023/03/28 11:23:17;;;;;;;;;;;;;;;0.87;59.74;101424.70;108943;1256;124070;-79
2023/03/28 11:25:52;;;;;;;;;;;;;;;0.77;59.80;101419.33;109069;1255;59887;-78
2023/03/28 11:28:36;;;;;;;;;;;;;;;0.80;59.73;101416.03;108485;1257;124130;-79
2023/03/28 11:31:03;;;;;;;;;;;;;;;0.92;60.11;101409.70;107648;1257;66928;-79
2023/03/28 11:33:37;;;;;;;;;;;;;;;1.10;60.18;101420.54;107620;1257;124220;-80
2023/03/28 11:36:09;;;;;;;;;;;;;;;1.37;59.82;101424.58;107631;1259;62696;-80
2023/03/28 11:38:38;;;;;;;;;;;;;;;1.64;59.66;101430.98;107673;1257;62049;-81
2023/03/28 11:41:16;;;;;;;;;;;;;;;1.94;59.52;101434.37;107533;1256;124635;-79
2023/03/28 11:43:43;;;;;;;;;;;;;;;2.26;58.73;101433.63;107784;1257;64655;-79
2023/03/28 11:46:28;;;;;;;;;;;;;;;2.57;58.55;101437.48;107463;1259;124674;-79
2023/03/28 11:49:12;;;;;;;;;;;;;;;2.85;58.22;101433.12;107435;1258;60041;-79
2023/03/28 11:51:42;;;;;;;;;;;;;;;2.99;57.71;101444.96;107555;1255;124888;-80
2023/03/28 11:54:20;;;;;;;;;;;;;;;3.04;58.22;101441.36;107636;1262;74184;-80
2023/03/28 11:56:50;;;;;;;;;;;;;;;3.10;57.28;101435.13;107644;1257;65540;-79
2023/03/28 11:59:29;;;;;;;;;;;;;;;3.29;57.59;101431.52;107450;1257;124486;-79
2023/03/28 12:01:59;;;;;;;;;;;;;;;3.46;56.96;101443.05;107358;1261;60869;-81
2023/03/28 12:04:30;;;;;;;;;;;;;;;3.37;55.84;101438.78;107259;1257;124801;-79
2023/03/28 12:07:00;;;;;;;;;;;;;;;3.17;55.28;101443.77;107248;1257;76276;-79
2023/03/28 12:09:27;;;;;;;;;;;;;;;3.20;55.81;101449.64;107366;1259;124427;-79
2023/03/28 12:11:55;;;;;;;;;;;;;;;3.29;55.50;101445.88;107638;1259;71375;-79
2023/03/28 12:14:32;;;;;;;;;;;;;;;3.37;55.54;101447.16;107793;1260;60384;-79
2023/03/28 12:17:00;;;;;;;;;;;;;;;3.61;55.26;101441.20;107466;1254;124039;-80
2023/03/28 12:19:31;;;;;;;;;;;;;;;3.81;54.97;101450.64;107402;1255;75264;-79
2023/03/28 12:22:03;;;;;;;;;;;;;;;3.83;53.22;101460.99;107557;1258;124458;-79
2023/03/28 12:24:34;;;;;;;;;;;;;;;3.80;52.92;101464.12;107643;1257;71418;-79
2023/03/28 12:27:01;;;;;;;;;;;;;;;3.74;52.99;101467.89;108691;1258;61785;-79
2023/03/28 12:29:57;;;;;;;;;;;;;;;3.67;52.90;101467.48;108910;1259;124196;-79
2023/03/28 12:32:26;;;;;;;;;;;;;;;3.55;52.80;101469.62;108088;1257;75507;-79
2023/03/28 12:34:57;;;;;;;;;;;;;;;3.59;53.15;101481.30;107325;1255;124539;-79
2023/03/28 12:37:34;;;;;;;;;;;;;;;3.68;53.27;101480.00;107380;1262;71379;-79
2023/03/28 12:40:13;;;;;;;;;;;;;;;3.70;53.73;101489.17;107393;1260;124780;-79
2023/03/28 12:42:40;;;;;;;;;;;;;;;3.67;54.25;101488.30;108039;1256;60300;-80
2023/03/28 12:45:10;;;;;;;;;;;;;;;3.77;54.11;101495.86;107734;1257;75538;-79